Time;durP1;ratioP1;P1;durP2;ratioP2;P2;SDS_P1;SDS_P2;PMS_P1;PMS_P2;Temp;Humidity;BMP_temperature;BMP_pressure;BME280_temperature;BME280_humidity;BME280_pressure;Samples;Min_cycle;Max_cycle;Signal;HPM_P1;HPM_P2
2022/04/06 00:00:08;;;;;;;6.15;5.55;;;9.90;61.10;;;;;;5073790;28;20024;-59
2022/04/06 00:02:34;;;;;;;6.20;5.60;;;9.90;61.30;;;;;;5079017;28;20361;-59
2022/04/06 00:05:00;;;;;;;6.68;6.00;;;9.90;61.50;;;;;;5088485;28;20352;-59
2022/04/06 00:07:27;;;;;;;6.85;6.22;;;9.90;61.70;;;;;;5082241;28;20036;-59
2022/04/06 00:09:52;;;;;;;7.47;6.65;;;9.80;61.70;;;;;;5066782;28;20426;-59
2022/04/06 00:12:18;;;;;;;7.75;6.90;;;9.80;61.90;;;;;;5093439;28;20024;-59
2022/04/06 00:14:43;;;;;;;8.65;6.68;;;9.80;61.90;;;;;;5086999;28;20039;-59
2022/04/06 00:17:10;;;;;;;8.45;7.45;;;9.80;62.00;;;;;;5093765;28;20031;-59
2022/04/06 00:19:36;;;;;;;8.25;6.45;;;9.80;62.10;;;;;;5072965;28;20468;-59
2022/04/06 00:22:03;;;;;;;7.45;6.57;;;9.80;62.20;;;;;;5072975;28;20380;-59
2022/04/06 00:24:29;;;;;;;6.97;6.28;;;9.80;62.30;;;;;;5094957;28;20028;-59
2022/04/06 00:26:54;;;;;;;7.18;5.90;;;9.80;62.50;;;;;;5075848;28;20031;-59
2022/04/06 00:29:20;;;;;;;7.18;6.22;;;9.70;62.60;;;;;;5078230;28;20078;-59
2022/04/06 00:31:46;;;;;;;6.82;6.07;;;9.70;62.70;;;;;;5071096;28;20032;-59
2022/04/06 00:34:11;;;;;;;6.47;5.85;;;9.70;62.90;;;;;;5061435;28;20031;-59
2022/04/06 00:36:37;;;;;;;9.07;6.00;;;9.70;63.00;;;;;;5085542;28;20161;-59
2022/04/06 00:39:03;;;;;;;7.55;6.60;;;9.70;63.00;;;;;;5074046;28;20043;-59
2022/04/06 00:41:28;;;;;;;7.50;6.25;;;9.70;63.10;;;;;;5094924;28;20021;-59
2022/04/06 00:44:14;;;;;;;7.15;6.20;;;9.70;63.20;;;;;;5092033;28;20107;-59
2022/04/06 00:46:45;;;;;;;6.80;6.10;;;9.70;63.20;;;;;;5094608;28;20055;-59
2022/04/06 00:49:14;;;;;;;6.68;5.97;;;9.70;63.30;;;;;;5094728;28;20024;-59
2022/04/06 00:51:42;;;;;;;8.20;6.82;;;9.80;63.40;;;;;;5094806;28;20035;-59
2022/04/06 00:54:08;;;;;;;6.88;5.97;;;9.80;63.40;;;;;;5094429;28;20035;-59
2022/04/06 00:56:35;;;;;;;6.90;6.22;;;9.70;63.40;;;;;;5087322;28;20357;-59
2022/04/06 00:59:01;;;;;;;6.97;6.05;;;9.80;63.60;;;;;;5075240;28;20034;-59
2022/04/06 01:01:27;;;;;;;7.03;6.05;;;9.70;63.70;;;;;;5069959;28;20029;-59
2022/04/06 01:03:52;;;;;;;7.15;6.35;;;9.70;63.70;;;;;;5082597;28;20361;-59
2022/04/06 01:06:20;;;;;;;7.47;5.90;;;9.70;63.80;;;;;;5093208;28;20021;-59
2022/04/06 01:08:46;;;;;;;6.50;5.90;;;9.70;63.90;;;;;;5094442;28;20074;-59
2022/04/06 01:11:12;;;;;;;6.28;5.68;;;9.70;64.20;;;;;;5093573;28;20404;-59
2022/04/06 01:13:38;;;;;;;6.63;5.60;;;9.60;64.20;;;;;;5093556;28;20031;-59
2022/04/06 01:16:04;;;;;;;6.57;5.60;;;9.60;64.20;;;;;;5081828;28;20523;-59
2022/04/06 01:18:33;;;;;;;6.57;5.95;;;9.70;64.20;;;;;;5070671;28;20028;-60
2022/04/06 01:20:58;;;;;;;6.80;6.03;;;9.70;64.10;;;;;;5073749;28;20033;-59
2022/04/06 01:23:25;;;;;;;6.40;5.80;;;9.70;64.00;;;;;;5083170;28;20017;-58
2022/04/06 01:25:50;;;;;;;6.15;5.55;;;9.70;64.00;;;;;;5093928;28;20360;-59
2022/04/06 01:28:16;;;;;;;5.55;5.03;;;9.80;64.10;;;;;;5079853;28;20020;-59
2022/04/06 01:30:42;;;;;;;5.85;5.30;;;9.80;64.00;;;;;;5093704;28;20099;-59
2022/04/06 01:33:08;;;;;;;5.90;5.35;;;9.80;63.90;;;;;;5078099;28;20151;-59
2022/04/06 01:35:38;;;;;;;5.57;5.07;;;9.80;63.90;;;;;;5080278;28;20039;-59
2022/04/06 01:38:04;;;;;;;5.43;4.93;;;9.80;63.80;;;;;;5093876;28;20388;-59
2022/04/06 01:40:30;;;;;;;5.75;5.15;;;9.80;63.80;;;;;;5093439;28;20056;-58
2022/04/06 01:42:56;;;;;;;6.38;5.38;;;9.80;63.80;;;;;;5092263;28;20024;-59
2022/04/06 01:45:22;;;;;;;6.38;5.75;;;9.70;63.80;;;;;;5093726;28;20043;-59
2022/04/06 01:47:47;;;;;;;6.60;5.68;;;9.70;63.90;;;;;;5086232;28;20029;-59
2022/04/06 01:52:57;;;;;;;5.65;5.07;;;9.70;63.90;;;;;;5070348;28;20506;-59
2022/04/06 01:55:22;;;;;;;5.60;5.00;;;9.70;64.00;;;;;;5093209;28;20028;-59
2022/04/06 01:57:48;;;;;;;6.20;5.43;;;9.70;64.10;;;;;;5077833;28;20040;-59
2022/04/06 02:00:17;;;;;;;6.15;5.55;;;9.60;64.00;;;;;;5092991;28;20434;-59
2022/04/06 02:02:52;;;;;;;5.65;5.13;;;9.70;64.20;;;;;;5065456;28;20024;-59
2022/04/06 02:05:18;;;;;;;6.03;5.45;;;9.70;64.20;;;;;;5091812;28;20054;-59
2022/04/06 02:07:48;;;;;;;6.00;5.40;;;9.70;64.30;;;;;;5092254;28;20404;-59
2022/04/06 02:10:15;;;;;;;6.55;5.90;;;9.70;64.30;;;;;;5086754;28;20024;-59
2022/04/06 02:12:41;;;;;;;6.65;6.00;;;9.70;64.30;;;;;;5093259;28;20028;-59
2022/04/06 02:15:10;;;;;;;6.82;6.13;;;9.70;64.40;;;;;;5081927;28;20028;-59
2022/04/06 02:17:37;;;;;;;6.32;5.63;;;9.70;64.30;;;;;;5085754;28;20027;-59
2022/04/06 02:20:03;;;;;;;6.10;5.50;;;9.70;64.30;;;;;;5058052;28;20028;-59
2022/04/06 02:22:28;;;;;;;6.22;5.63;;;9.70;64.30;;;;;;5086914;28;20444;-59
2022/04/06 02:24:54;;;;;;;6.57;5.90;;;9.70;64.20;;;;;;5085802;28;20027;-59
2022/04/06 02:27:20;;;;;;;6.35;5.53;;;9.70;64.20;;;;;;5069058;28;20129;-59
2022/04/06 02:29:45;;;;;;;5.90;5.30;;;9.70;64.30;;;;;;5061626;28;20021;-59
2022/04/06 02:32:12;;;;;;;7.47;6.22;;;9.70;64.30;;;;;;5079911;28;20024;-59
2022/04/06 02:34:39;;;;;;;6.32;5.72;;;9.60;64.40;;;;;;5073116;28;20020;-59
2022/04/06 02:37:06;;;;;;;8.32;6.43;;;9.60;64.50;;;;;;5078060;28;20028;-59
2022/04/06 02:39:32;;;;;;;6.80;6.10;;;9.60;64.50;;;;;;5092511;28;20054;-59
2022/04/06 02:41:58;;;;;;;6.88;5.90;;;9.50;64.50;;;;;;5090121;28;20032;-59
2022/04/06 02:44:23;;;;;;;6.53;5.90;;;9.50;64.60;;;;;;5088885;28;20062;-59
2022/04/06 02:46:49;;;;;;;7.15;5.75;;;9.50;64.70;;;;;;5088730;28;20046;-59
2022/04/06 02:49:15;;;;;;;7.22;6.53;;;9.50;64.70;;;;;;5086715;28;20024;-59
2022/04/06 02:51:41;;;;;;;7.15;6.07;;;9.50;64.80;;;;;;5092017;28;20032;-59
2022/04/06 02:54:07;;;;;;;6.90;6.20;;;9.40;64.80;;;;;;5091266;28;20500;-59
2022/04/06 02:56:33;;;;;;;6.82;6.15;;;9.40;64.80;;;;;;5065391;28;20595;-59
2022/04/06 02:59:00;;;;;;;7.75;6.25;;;9.40;64.80;;;;;;5090170;28;20070;-59
2022/04/06 03:01:25;;;;;;;6.55;5.85;;;9.40;64.90;;;;;;5074512;28;20110;-59
2022/04/06 03:03:51;;;;;;;6.63;5.97;;;9.30;65.10;;;;;;5092178;28;20062;-59
2022/04/06 03:06:16;;;;;;;6.68;5.82;;;9.20;65.30;;;;;;5076830;28;20052;-59
2022/04/06 03:08:43;;;;;;;6.15;5.55;;;9.20;65.40;;;;;;5092048;28;20028;-59
2022/04/06 03:11:09;;;;;;;6.15;5.55;;;9.20;65.50;;;;;;5092010;28;20028;-59
2022/04/06 03:13:34;;;;;;;6.85;6.15;;;9.20;65.60;;;;;;5088477;28;20027;-59
2022/04/06 03:16:00;;;;;;;6.93;5.80;;;9.20;65.60;;;;;;5068091;28;20043;-59
2022/04/06 03:18:26;;;;;;;7.40;6.68;;;9.10;65.60;;;;;;5055043;28;20401;-59
2022/04/06 03:20:51;;;;;;;6.82;6.13;;;9.10;65.60;;;;;;5091821;28;20020;-59
2022/04/06 03:23:17;;;;;;;6.57;5.97;;;9.10;65.80;;;;;;5091752;28;20408;-59
2022/04/06 03:25:44;;;;;;;7.18;6.45;;;9.00;65.90;;;;;;5090521;28;20026;-58
2022/04/06 03:28:09;;;;;;;6.95;6.25;;;9.00;66.00;;;;;;5079149;28;20081;-59
2022/04/06 03:30:35;;;;;;;7.03;6.32;;;9.00;66.00;;;;;;5082301;28;20374;-59
2022/04/06 03:33:01;;;;;;;7.13;6.43;;;9.00;66.10;;;;;;5073743;28;20070;-59
2022/04/06 03:35:27;;;;;;;7.00;6.30;;;9.00;66.10;;;;;;5053610;28;20037;-59
2022/04/06 03:37:53;;;;;;;7.47;6.03;;;9.00;66.20;;;;;;5090940;28;20031;-60
2022/04/06 03:40:19;;;;;;;10.93;6.55;;;9.00;66.40;;;;;;5091521;28;20044;-59
2022/04/06 03:42:45;;;;;;;7.90;7.10;;;9.00;66.40;;;;;;5095044;28;20392;-60
2022/04/06 03:45:10;;;;;;;8.15;7.32;;;9.00;66.60;;;;;;5095936;28;20023;-58
2022/04/06 03:47:38;;;;;;;8.20;7.20;;;9.00;66.60;;;;;;5082539;28;20033;-58
2022/04/06 03:50:05;;;;;;;8.32;7.45;;;9.00;66.60;;;;;;5069342;28;20034;-57
2022/04/06 03:52:30;;;;;;;8.93;7.40;;;9.10;66.70;;;;;;5081691;28;20111;-58
2022/04/06 03:54:56;;;;;;;9.40;7.82;;;9.10;67.30;;;;;;5095674;28;20092;-58
2022/04/06 03:57:22;;;;;;;9.57;8.05;;;9.10;66.70;;;;;;5080240;28;20028;-57
2022/04/06 03:59:48;;;;;;;9.05;7.72;;;9.20;66.60;;;;;;5081996;28;20020;-58
2022/04/06 04:02:13;;;;;;;8.68;7.78;;;9.20;66.50;;;;;;5095554;28;20150;-58
2022/04/06 04:04:39;;;;;;;8.13;7.18;;;9.30;66.50;;;;;;5095323;28;20035;-57
2022/04/06 04:07:07;;;;;;;10.75;7.72;;;9.40;66.60;;;;;;5091295;28;20081;-58
2022/04/06 04:09:33;;;;;;;9.32;7.75;;;9.40;66.40;;;;;;5082759;28;20024;-58
2022/04/06 04:11:59;;;;;;;9.15;6.93;;;9.50;66.40;;;;;;5093337;28;20028;-58
2022/04/06 04:14:25;;;;;;;9.85;6.90;;;9.60;66.40;;;;;;5095138;28;20093;-57
2022/04/06 04:16:50;;;;;;;7.15;6.45;;;9.70;66.40;;;;;;5086721;28;20077;-58
2022/04/06 04:19:16;;;;;;;7.95;7.00;;;9.80;66.30;;;;;;5077881;28;20032;-58
2022/04/06 04:21:43;;;;;;;7.53;6.55;;;10.00;66.20;;;;;;5079143;28;20399;-58
2022/04/06 04:24:09;;;;;;;8.73;7.13;;;10.10;66.00;;;;;;5070014;28;20100;-58
2022/04/06 04:26:36;;;;;;;8.57;7.20;;;10.20;65.70;;;;;;5072430;28;20050;-59
2022/04/06 04:29:03;;;;;;;9.02;7.30;;;10.40;65.30;;;;;;5059594;28;20079;-58
2022/04/06 04:31:29;;;;;;;10.43;7.82;;;10.50;64.80;;;;;;5068101;28;20083;-58
2022/04/06 04:33:56;;;;;;;8.93;8.02;;;10.60;64.40;;;;;;5074074;28;20121;-58
2022/04/06 04:36:21;;;;;;;9.05;8.15;;;10.70;64.10;;;;;;5066918;28;20377;-58
2022/04/06 04:38:47;;;;;;;9.85;8.07;;;10.80;63.80;;;;;;5067996;28;20039;-57
2022/04/06 04:41:13;;;;;;;10.32;8.10;;;10.90;63.40;;;;;;5068478;28;20049;-58
2022/04/06 04:43:39;;;;;;;10.30;7.70;;;11.00;63.10;;;;;;5066342;28;20032;-58
2022/04/06 04:46:05;;;;;;;8.30;7.03;;;11.10;62.90;;;;;;5076000;28;20078;-57
2022/04/06 04:48:31;;;;;;;8.68;7.78;;;11.30;63.00;;;;;;5072281;28;20027;-58
2022/04/06 04:50:57;;;;;;;7.82;7.07;;;11.60;62.80;;;;;;5074328;28;20370;-56
2022/04/06 04:53:23;;;;;;;8.60;6.80;;;12.10;62.10;;;;;;5082755;28;20025;-58
2022/04/06 04:55:49;;;;;;;7.57;6.68;;;12.70;61.10;;;;;;5076836;28;20021;-57
2022/04/06 04:58:15;;;;;;;7.53;6.72;;;13.30;60.10;;;;;;5073011;28;20040;-57
2022/04/06 05:00:40;;;;;;;8.20;6.75;;;13.90;58.70;;;;;;5074090;28;20504;-58
2022/04/06 05:03:08;;;;;;;7.07;6.15;;;14.10;57.70;;;;;;5065139;28;20113;-59
2022/04/06 05:05:34;;;;;;;6.32;5.50;;;14.40;57.30;;;;;;5064186;28;20036;-58
2022/04/06 05:07:59;;;;;;;6.55;5.80;;;14.60;56.80;;;;;;5068202;28;20036;-58
2022/04/06 05:10:26;;;;;;;9.05;5.85;;;14.90;56.20;;;;;;5075755;28;20025;-58
2022/04/06 05:12:52;;;;;;;6.70;5.82;;;15.30;55.70;;;;;;5074317;28;20123;-57
2022/04/06 05:15:18;;;;;;;5.88;5.28;;;15.80;55.00;;;;;;5059391;28;20115;-58
2022/04/06 05:17:44;;;;;;;6.57;5.07;;;16.30;53.90;;;;;;5065501;28;20442;-57
2022/04/06 05:20:10;;;;;;;6.40;5.68;;;16.60;53.30;;;;;;5065128;28;20115;-58
2022/04/06 05:22:36;;;;;;;6.10;5.43;;;17.00;52.60;;;;;;5070911;28;20059;-58
2022/04/06 05:25:04;;;;;;;6.65;5.70;;;17.50;51.80;;;;;;5059790;28;20052;-58
2022/04/06 05:27:31;;;;;;;7.28;5.30;;;18.00;51.10;;;;;;5061563;28;20466;-58
2022/04/06 05:29:57;;;;;;;6.93;5.13;;;18.40;50.00;;;;;;5065485;28;20024;-58
2022/04/06 05:32:22;;;;;;;6.43;5.25;;;18.70;49.40;;;;;;5063321;28;20053;-58
2022/04/06 05:34:48;;;;;;;6.50;5.50;;;18.90;48.70;;;;;;5065741;28;20083;-57
2022/04/06 05:37:14;;;;;;;6.68;5.43;;;19.00;48.50;;;;;;5064666;28;20433;-58
2022/04/06 05:39:40;;;;;;;6.70;5.35;;;19.20;48.40;;;;;;5070683;28;20493;-58
2022/04/06 05:42:06;;;;;;;6.00;5.30;;;19.50;47.90;;;;;;5057238;28;20087;-57
2022/04/06 05:44:31;;;;;;;7.45;5.68;;;19.90;47.50;;;;;;5060388;28;20460;-58
2022/04/06 05:46:57;;;;;;;7.13;5.75;;;20.30;46.80;;;;;;5054145;28;20135;-58
2022/04/06 05:49:22;;;;;;;6.70;5.32;;;20.50;46.30;;;;;;5057691;28;20029;-58
2022/04/06 05:51:49;;;;;;;6.45;5.13;;;20.70;45.50;;;;;;5063029;28;20550;-58
2022/04/06 05:54:14;;;;;;;7.32;5.50;;;20.60;45.10;;;;;;5054628;28;20043;-58
2022/04/06 05:56:40;;;;;;;6.03;5.30;;;20.50;44.80;;;;;;5049089;28;20029;-59
2022/04/06 05:59:05;;;;;;;7.38;5.05;;;20.20;45.00;;;;;;5058269;28;20037;-58
2022/04/06 06:01:31;;;;;;;7.63;5.35;;;19.80;45.40;;;;;;5058137;28;20089;-59
2022/04/06 06:03:56;;;;;;;6.15;5.55;;;19.30;46.00;;;;;;5057970;28;20512;-59
2022/04/06 06:06:22;;;;;;;8.20;5.65;;;18.80;46.50;;;;;;5054268;28;20078;-59
2022/04/06 06:08:48;;;;;;;6.03;5.25;;;18.30;47.30;;;;;;5060475;28;20036;-58
2022/04/06 06:11:14;;;;;;;9.00;6.20;;;17.80;47.90;;;;;;5052374;28;20119;-58
2022/04/06 06:13:40;;;;;;;6.57;5.80;;;17.40;48.70;;;;;;5051667;28;20623;-59
2022/04/06 06:16:05;;;;;;;6.57;5.97;;;17.00;49.40;;;;;;5054464;28;20032;-59
2022/04/06 06:18:31;;;;;;;6.78;6.07;;;16.60;49.90;;;;;;5051563;28;20039;-59
2022/04/06 06:21:00;;;;;;;7.20;6.03;;;16.30;50.50;;;;;;5053220;28;20037;-59
2022/04/06 06:23:26;;;;;;;7.93;6.03;;;16.00;50.80;;;;;;5053898;28;20516;-59
2022/04/06 06:25:52;;;;;;;7.55;5.50;;;15.80;51.00;;;;;;5050579;28;20556;-59
2022/04/06 06:28:18;;;;;;;8.30;5.72;;;15.70;51.50;;;;;;5047070;28;20021;-58
2022/04/06 06:30:43;;;;;;;6.43;5.55;;;15.50;51.50;;;;;;5049933;28;20807;-59
2022/04/06 06:33:09;;;;;;;6.57;5.50;;;15.40;52.00;;;;;;5055259;28;20039;-59
2022/04/06 06:35:34;;;;;;;6.90;5.65;;;15.20;52.20;;;;;;5054110;28;20114;-59
2022/04/06 06:38:00;;;;;;;6.05;5.45;;;15.20;52.40;;;;;;5058016;28;20050;-59
2022/04/06 06:40:27;;;;;;;5.93;5.03;;;15.10;52.40;;;;;;5058095;28;20129;-59
2022/04/06 06:42:53;;;;;;;5.80;4.90;;;15.00;52.30;;;;;;5048218;28;20467;-58
2022/04/06 06:45:18;;;;;;;4.88;4.25;;;15.00;52.40;;;;;;5048693;28;20021;-58
2022/04/06 06:47:44;;;;;;;5.53;4.82;;;15.00;52.60;;;;;;5045476;28;20032;-59
2022/04/06 06:50:13;;;;;;;5.45;4.65;;;15.00;52.40;;;;;;5053052;28;20366;-58
2022/04/06 06:52:38;;;;;;;5.45;4.95;;;14.90;52.60;;;;;;5052103;28;20481;-58
2022/04/06 06:55:05;;;;;;;5.18;4.68;;;15.00;52.60;;;;;;5049857;28;20099;-59
2022/04/06 06:57:31;;;;;;;6.05;5.03;;;15.00;52.40;;;;;;5046411;28;20025;-59
2022/04/06 06:59:57;;;;;;;5.95;5.00;;;14.90;52.60;;;;;;5045958;28;20503;-59
2022/04/06 07:02:23;;;;;;;7.82;5.05;;;15.00;52.80;;;;;;5045702;28;20032;-58
2022/04/06 07:04:49;;;;;;;5.18;4.68;;;14.90;53.20;;;;;;5054527;28;20040;-58
2022/04/06 07:07:15;;;;;;;5.55;4.97;;;14.90;52.70;;;;;;5058242;28;20028;-58
2022/04/06 07:09:41;;;;;;;6.20;4.80;;;14.90;53.10;;;;;;5049984;28;20031;-59
2022/04/06 07:12:06;;;;;;;8.07;5.00;;;14.90;53.20;;;;;;5057555;28;20485;-58
2022/04/06 07:14:32;;;;;;;6.30;5.10;;;14.90;53.30;;;;;;5055208;28;20495;-59
2022/04/06 07:16:58;;;;;;;4.90;4.40;;;14.90;53.20;;;;;;5054682;28;20039;-59
2022/04/06 07:19:24;;;;;;;6.00;4.53;;;15.00;53.20;;;;;;5052282;28;20029;-58
2022/04/06 07:21:50;;;;;;;7.72;6.32;;;15.00;52.90;;;;;;5061049;28;20032;-59
2022/04/06 07:24:16;;;;;;;7.13;5.63;;;15.10;53.00;;;;;;5047822;28;20485;-58
2022/04/06 07:26:42;;;;;;;5.40;4.80;;;15.10;53.00;;;;;;5050503;28;20029;-58
2022/04/06 07:29:11;;;;;;;5.32;4.40;;;15.20;52.90;;;;;;5052541;28;20489;-58
2022/04/06 07:31:38;;;;;;;4.82;4.28;;;15.20;52.80;;;;;;5054596;28;20033;-58
2022/04/06 07:34:03;;;;;;;5.20;4.25;;;15.30;52.70;;;;;;5051198;28;20043;-58
2022/04/06 07:36:30;;;;;;;4.93;4.20;;;15.40;52.50;;;;;;5044939;28;20041;-59
2022/04/06 07:38:55;;;;;;;4.45;4.05;;;15.40;52.30;;;;;;5044507;28;20024;-59
2022/04/06 07:41:24;;;;;;;5.43;3.75;;;15.40;52.10;;;;;;5048308;28;20056;-59
2022/04/06 07:43:50;;;;;;;4.07;3.67;;;15.40;51.80;;;;;;5054048;28;20035;-59
2022/04/06 07:46:15;;;;;;;4.65;3.83;;;15.40;51.90;;;;;;5045334;28;20029;-59
2022/04/06 07:48:41;;;;;;;4.50;3.90;;;15.40;52.00;;;;;;5046355;28;20067;-59
2022/04/06 07:51:07;;;;;;;4.68;4.18;;;15.50;52.20;;;;;;5040048;28;20105;-58
2022/04/06 07:53:33;;;;;;;6.40;3.50;;;15.50;52.00;;;;;;5035904;28;20040;-57
2022/04/06 07:55:58;;;;;;;4.70;3.72;;;15.50;51.60;;;;;;5041863;28;20029;-59
2022/04/06 07:58:24;;;;;;;5.10;3.83;;;15.60;51.60;;;;;;5044094;28;20489;-58
2022/04/06 08:00:50;;;;;;;6.05;4.22;;;15.60;51.60;;;;;;5048176;28;20125;-59
2022/04/06 08:03:15;;;;;;;4.70;3.75;;;15.60;51.60;;;;;;5045993;28;20025;-60
2022/04/06 08:05:41;;;;;;;4.68;3.92;;;15.60;51.50;;;;;;5042008;28;20089;-59
2022/04/06 08:08:07;;;;;;;4.80;3.78;;;15.60;51.60;;;;;;5045171;28;20020;-59
2022/04/06 08:10:32;;;;;;;4.80;3.97;;;15.70;51.90;;;;;;5040664;28;20131;-59
2022/04/06 08:12:58;;;;;;;5.63;3.70;;;15.70;51.60;;;;;;5038723;28;25239;-59
2022/04/06 08:15:24;;;;;;;4.95;3.80;;;15.80;51.60;;;;;;5033414;28;20046;-59
2022/04/06 08:17:49;;;;;;;4.18;3.78;;;15.90;51.50;;;;;;5038260;28;20102;-60
2022/04/06 08:20:17;;;;;;;4.30;3.90;;;15.90;51.50;;;;;;5044133;28;20500;-61
2022/04/06 08:22:44;;;;;;;4.30;3.78;;;16.00;51.50;;;;;;5052096;28;20043;-61
2022/04/06 08:25:10;;;;;;;4.45;3.47;;;16.00;51.60;;;;;;5046970;28;20029;-61
2022/04/06 08:27:39;;;;;;;3.92;3.53;;;16.00;51.50;;;;;;5040137;28;20086;-60
2022/04/06 08:30:05;;;;;;;3.40;3.10;;;16.00;51.50;;;;;;5049655;28;20133;-60
2022/04/06 08:32:31;;;;;;;3.97;3.58;;;16.00;51.60;;;;;;5044163;28;20160;-61
2022/04/06 08:34:57;;;;;;;4.50;3.75;;;16.00;51.40;;;;;;5046933;28;20052;-60
2022/04/06 08:37:22;;;;;;;5.50;4.22;;;16.10;51.30;;;;;;5031638;28;20033;-61
2022/04/06 08:39:48;;;;;;;4.32;3.60;;;16.10;50.90;;;;;;5047002;28;20424;-60
2022/04/06 08:42:14;;;;;;;6.97;3.80;;;16.10;50.70;;;;;;5048763;28;20054;-60
2022/04/06 08:44:40;;;;;;;4.20;3.13;;;16.20;50.70;;;;;;5048397;28;20032;-60
2022/04/06 08:47:06;;;;;;;4.20;3.50;;;16.20;50.80;;;;;;5047570;28;20114;-61
2022/04/06 08:49:34;;;;;;;4.88;3.75;;;16.30;50.80;;;;;;5039301;28;20039;-60
2022/04/06 08:52:02;;;;;;;5.03;3.92;;;16.30;50.80;;;;;;5039294;28;20033;-60
2022/04/06 08:54:27;;;;;;;5.85;4.53;;;16.40;50.70;;;;;;5047458;28;20041;-59
2022/04/06 08:56:53;;;;;;;4.15;3.58;;;16.40;50.90;;;;;;5040631;28;20060;-62
2022/04/06 08:59:19;;;;;;;4.88;4.38;;;16.50;50.90;;;;;;5044137;28;20029;-60
2022/04/06 09:01:45;;;;;;;6.18;4.07;;;16.50;50.70;;;;;;5041183;28;20033;-61
2022/04/06 09:04:10;;;;;;;4.97;4.18;;;16.60;50.60;;;;;;5041400;28;20067;-61
2022/04/06 09:06:41;;;;;;;5.47;4.38;;;16.60;50.60;;;;;;5046075;28;20032;-61
2022/04/06 09:09:08;;;;;;;4.95;4.00;;;16.60;50.60;;;;;;5046525;28;20028;-59
2022/04/06 09:11:42;;;;;;;5.70;4.07;;;16.60;50.70;;;;;;5046290;28;20028;-61
2022/04/06 09:14:08;;;;;;;4.57;3.80;;;16.60;50.40;;;;;;5044148;28;20542;-60
2022/04/06 09:16:33;;;;;;;3.92;3.53;;;16.60;50.30;;;;;;5037341;28;20037;-61
2022/04/06 09:19:09;;;;;;;4.65;3.60;;;16.70;50.40;;;;;;5037678;28;20037;-60
2022/04/06 09:21:39;;;;;;;5.22;3.60;;;16.70;50.20;;;;;;5040205;28;20077;-61
2022/04/06 09:24:05;;;;;;;4.00;3.60;;;16.80;50.00;;;;;;5043986;28;20029;-60
2022/04/06 09:26:32;;;;;;;5.60;3.92;;;16.80;49.90;;;;;;5040266;28;20482;-60
2022/04/06 09:28:57;;;;;;;3.75;3.35;;;16.80;49.60;;;;;;5039558;28;20029;-60
2022/04/06 09:31:23;;;;;;;4.88;4.05;;;16.80;49.50;;;;;;5041175;28;21049;-60
2022/04/06 09:34:00;;;;;;;4.03;3.55;;;16.80;49.70;;;;;;5041366;28;20461;-60
2022/04/06 09:36:30;;;;;;;3.75;3.15;;;16.80;49.70;;;;;;5048329;28;20033;-62
2022/04/06 09:38:56;;;;;;;3.40;3.10;;;16.80;49.80;;;;;;5038859;28;20040;-61
2022/04/06 09:41:21;;;;;;;3.78;3.20;;;16.90;49.90;;;;;;5031402;28;20049;-62
2022/04/06 09:43:50;;;;;;;4.07;3.20;;;16.90;49.90;;;;;;5044673;28;20024;-60
2022/04/06 09:49:08;;;;;;;3.40;3.10;;;16.90;49.60;;;;;;5031529;28;20047;-61
2022/04/06 09:51:34;;;;;;;3.60;3.30;;;16.80;49.60;;;;;;5050044;28;21549;-61
2022/04/06 09:54:03;;;;;;;3.40;3.10;;;16.90;49.70;;;;;;5045614;28;20039;-62
2022/04/06 09:56:30;;;;;;;4.07;3.67;;;16.90;49.40;;;;;;5041594;28;20020;-60
2022/04/06 09:58:57;;;;;;;3.42;3.13;;;16.90;49.40;;;;;;5041744;28;20037;-61
2022/04/06 10:01:26;;;;;;;4.25;3.40;;;16.90;49.20;;;;;;5041721;28;20041;-62
2022/04/06 10:03:56;;;;;;;5.20;3.20;;;16.90;49.00;;;;;;5049043;28;20580;-62
2022/04/06 10:06:22;;;;;;;3.35;3.05;;;16.90;49.10;;;;;;5051490;28;20040;-61
2022/04/06 10:08:49;;;;;;;3.55;3.10;;;17.00;49.30;;;;;;5048357;28;20100;-60
2022/04/06 10:11:17;;;;;;;3.17;2.75;;;17.00;48.70;;;;;;5048176;28;20043;-61
2022/04/06 10:13:44;;;;;;;3.38;3.00;;;17.00;48.40;;;;;;5045356;28;20043;-61
2022/04/06 10:16:12;;;;;;;3.03;2.78;;;17.00;48.70;;;;;;5057412;28;20060;-62
2022/04/06 10:18:39;;;;;;;3.47;2.88;;;16.90;48.40;;;;;;5050676;28;20025;-62
2022/04/06 10:21:14;;;;;;;4.40;2.97;;;16.90;48.60;;;;;;5042690;28;20024;-61
2022/04/06 10:24:18;;;;;;;3.50;3.03;;;17.00;48.60;;;;;;5044019;28;20029;-62
2022/04/06 10:27:05;;;;;;;4.15;2.92;;;17.00;48.10;;;;;;5041633;28;20020;-60
2022/04/06 10:29:31;;;;;;;4.30;3.30;;;17.00;48.20;;;;;;5043253;28;20034;-61
2022/04/06 10:31:57;;;;;;;2.83;2.63;;;17.10;48.30;;;;;;5050997;28;20028;-61
2022/04/06 10:34:30;;;;;;;3.88;2.78;;;17.10;48.00;;;;;;5039214;28;20109;-61
2022/04/06 10:37:11;;;;;;;3.97;2.60;;;17.10;47.80;;;;;;5034228;28;20053;-61
2022/04/06 10:39:57;;;;;;;3.40;2.50;;;17.20;47.60;;;;;;5036741;28;20056;-61
2022/04/06 10:42:31;;;;;;;2.47;2.28;;;17.20;47.50;;;;;;5048717;28;20071;-62
2022/04/06 10:44:57;;;;;;;3.05;2.58;;;17.20;47.40;;;;;;5033652;28;20135;-61
2022/04/06 10:47:23;;;;;;;2.75;2.45;;;17.20;47.40;;;;;;5035220;28;20046;-60
2022/04/06 10:50:08;;;;;;;2.05;1.92;;;17.30;47.60;;;;;;5044755;28;20025;-61
2022/04/06 10:52:34;;;;;;;2.40;2.22;;;17.30;47.20;;;;;;5030080;28;20032;-60
2022/04/06 10:55:27;;;;;;;2.33;2.13;;;17.40;47.00;;;;;;5039805;28;20032;-60
2022/04/06 10:58:03;;;;;;;3.67;2.20;;;17.40;46.80;;;;;;5043866;28;20036;-62
2022/04/06 11:00:30;;;;;;;2.92;2.13;;;17.40;46.50;;;;;;5029973;28;20082;-59
2022/04/06 11:03:15;;;;;;;3.25;2.10;;;17.40;46.30;;;;;;5040753;28;20036;-61
2022/04/06 11:05:52;;;;;;;2.03;1.92;;;17.50;46.20;;;;;;5041002;28;20048;-60
2022/04/06 11:11:47;;;;;;;2.10;1.90;;;17.50;46.10;;;;;;5045220;28;20047;-60
2022/04/06 11:14:25;;;;;;;2.25;1.75;;;17.40;46.00;;;;;;5036160;28;20629;-59
2022/04/06 11:16:52;;;;;;;2.63;1.70;;;17.40;46.20;;;;;;5037071;28;20036;-59
2022/04/06 11:19:18;;;;;;;3.35;2.35;;;17.40;46.20;;;;;;5049888;28;20040;-59
2022/04/06 11:21:52;;;;;;;2.97;2.40;;;17.40;45.80;;;;;;5038048;28;20028;-59
2022/04/06 11:24:20;;;;;;;3.05;2.33;;;17.40;45.80;;;;;;5035947;28;20667;-59
2022/04/06 11:26:46;;;;;;;3.55;2.30;;;17.40;45.90;;;;;;5046614;28;20110;-60
2022/04/06 11:29:12;;;;;;;3.22;2.50;;;17.40;45.80;;;;;;5047486;28;20498;-60
2022/04/06 11:31:57;;;;;;;2.40;2.13;;;17.50;45.70;;;;;;5039869;28;20036;-60
2022/04/06 11:34:34;;;;;;;3.85;2.40;;;17.50;45.70;;;;;;5042581;28;20795;-59
2022/04/06 11:37:01;;;;;;;3.42;2.65;;;17.50;45.40;;;;;;5048187;28;20094;-59
2022/04/06 11:39:29;;;;;;;4.72;2.55;;;17.60;45.30;;;;;;5043730;28;20464;-59
2022/04/06 11:41:54;;;;;;;5.70;4.03;;;17.60;45.00;;;;;;5065944;28;20500;-59
2022/04/06 11:44:24;;;;;;;2.28;2.05;;;17.60;45.10;;;;;;5046311;28;20103;-59
2022/04/06 11:46:51;;;;;;;2.58;2.05;;;17.70;45.00;;;;;;5046979;28;20028;-59
2022/04/06 11:49:23;;;;;;;5.90;2.35;;;17.70;44.90;;;;;;5050186;28;20040;-59
2022/04/06 11:51:49;;;;;;;3.53;2.33;;;17.70;45.40;;;;;;5041832;28;20033;-59
2022/04/06 11:54:16;;;;;;;2.33;2.10;;;17.80;44.60;;;;;;5035973;28;20045;-60
2022/04/06 11:56:41;;;;;;;4.57;1.95;;;17.80;44.50;;;;;;5048847;28;20040;-59
2022/04/06 11:59:09;;;;;;;2.33;2.13;;;17.80;44.50;;;;;;5046360;28;20036;-59
2022/04/06 12:01:42;;;;;;;2.53;2.05;;;17.80;44.30;;;;;;5034472;28;20033;-60
2022/04/06 12:04:21;;;;;;;2.80;2.10;;;17.80;44.20;;;;;;5039687;28;20512;-60
2022/04/06 12:06:46;;;;;;;2.58;1.95;;;17.80;44.30;;;;;;5042763;28;20028;-60
2022/04/06 12:09:12;;;;;;;2.67;2.20;;;17.80;44.50;;;;;;5049230;28;20028;-60
2022/04/06 12:11:39;;;;;;;2.83;2.22;;;17.80;44.50;;;;;;5040561;28;20082;-60
2022/04/06 12:14:10;;;;;;;4.07;2.40;;;17.80;44.50;;;;;;5032600;28;20161;-59
2022/04/06 12:16:40;;;;;;;2.75;2.38;;;17.80;44.50;;;;;;5030543;28;20047;-60
2022/04/06 12:19:12;;;;;;;3.95;2.45;;;17.80;44.70;;;;;;5043709;28;20523;-60
2022/04/06 12:21:43;;;;;;;4.57;2.47;;;17.80;44.50;;;;;;5037554;28;20041;-60
2022/04/06 12:24:11;;;;;;;4.03;2.38;;;17.90;44.70;;;;;;5043124;28;20616;-60
2022/04/06 12:26:45;;;;;;;3.33;2.70;;;17.90;44.70;;;;;;5043985;28;20883;-60
2022/04/06 12:29:15;;;;;;;2.50;2.30;;;17.90;44.50;;;;;;5047345;28;20179;-60
2022/04/06 12:31:42;;;;;;;4.20;2.47;;;18.00;44.70;;;;;;5037354;28;20838;-60
2022/04/06 12:34:29;;;;;;;3.17;2.35;;;18.00;44.60;;;;;;5044129;28;20057;-60
2022/04/06 12:36:55;;;;;;;2.95;2.30;;;18.00;44.50;;;;;;5040658;28;20082;-61
2022/04/06 12:39:21;;;;;;;2.70;2.15;;;18.00;44.30;;;;;;5043050;28;20045;-60
2022/04/06 12:41:59;;;;;;;3.15;2.47;;;18.10;44.10;;;;;;5035147;28;20033;-60
2022/04/06 12:44:28;;;;;;;3.15;2.42;;;18.00;44.10;;;;;;5040279;28;20029;-60
2022/04/06 12:46:54;;;;;;;4.80;2.72;;;18.00;44.30;;;;;;5041847;28;20093;-59
2022/04/06 12:49:28;;;;;;;3.80;2.72;;;18.00;44.30;;;;;;5041447;28;20032;-58
2022/04/06 12:52:16;;;;;;;3.40;2.55;;;18.10;44.30;;;;;;5044194;28;20158;-60
2022/04/06 12:54:50;;;;;;;3.20;2.75;;;18.10;44.40;;;;;;5044054;28;20147;-60
2022/04/06 12:57:30;;;;;;;2.78;2.10;;;18.10;44.20;;;;;;5050213;28;20162;-60
2022/04/06 13:00:13;;;;;;;3.03;2.35;;;18.10;43.90;;;;;;5049871;28;20037;-60